Strafford, New Hampshire
Current Conditions -  °F | °C
As of 12:51 PM on Friday 28 Nov 2014 (Local Time) from KDAW Reporting Station
Overcast Overcast  
Wind Chill: 24°   Ceiling: 3600
Heat Index: 31°   Visibility: 10mi
Dew Point: 20°   Wind: 7mph
Humidity: 64%   Direction: 310°NW
Pressure: 30.02"   Gusts: NA
Location:  43.33°N, 71.18°W
Report Text: KDAW 281751Z AUTO 31006KT 10SM BKN036 OVC043 M01/M07 A3002 RMK AO2 SLP168 60000 T10061067 11006 21044 58009
Loading
Personal Weather Stations






























Interactive Weather Map New forecast layout! Learn more

10-Day Weather Forecast

Advertisements
Track Severe Weather on mobile